createdAt,value
2022-09-13T00:02:03.457Z,5.32
2022-09-13T00:04:30.923Z,5.43
2022-09-13T00:06:58.297Z,5.10
2022-09-13T00:09:25.855Z,4.60
2022-09-13T00:11:54.287Z,5.30
2022-09-13T00:14:21.733Z,4.60
2022-09-13T00:16:49.414Z,4.68
2022-09-13T00:19:16.910Z,4.47
2022-09-13T00:21:44.379Z,5.05
2022-09-13T00:24:11.831Z,5.25
2022-09-13T00:26:39.274Z,4.72
2022-09-13T00:29:07.057Z,4.90
2022-09-13T00:31:34.686Z,5.07
2022-09-13T00:34:02.106Z,5.03
2022-09-13T00:36:30.080Z,5.72
2022-09-13T00:38:58.297Z,5.82
2022-09-13T00:41:25.839Z,5.55
2022-09-13T00:43:56.439Z,5.57
2022-09-13T00:46:53.646Z,5.97
2022-09-13T00:49:23.708Z,5.88
2022-09-13T00:52:00.458Z,6.03
2022-09-13T00:54:31.746Z,6.18
2022-09-13T00:57:02.697Z,5.97
2022-09-13T00:59:35.534Z,5.82
2022-09-13T01:02:04.897Z,6.13
2022-09-13T01:04:35.822Z,5.95
2022-09-13T01:07:07.838Z,5.80
2022-09-13T01:09:42.309Z,5.15
2022-09-13T01:13:07.569Z,5.38
2022-09-13T01:15:45.404Z,5.13
2022-09-13T01:18:13.541Z,5.00
2022-09-13T01:21:13.275Z,4.75
2022-09-13T01:24:04.787Z,4.85
2022-09-13T01:27:09.901Z,4.45
2022-09-13T01:30:14.825Z,3.90
2022-09-13T01:33:01.965Z,4.43
2022-09-13T01:36:09.670Z,5.35
2022-09-13T01:38:45.580Z,5.75
2022-09-13T01:41:43.032Z,8.35
2022-09-13T01:44:38.769Z,10.13
2022-09-13T01:47:20.061Z,9.27
2022-09-13T01:50:10.565Z,9.65
2022-09-13T01:53:00.939Z,10.27
2022-09-13T01:55:34.455Z,10.35
2022-09-13T01:58:20.950Z,12.20
2022-09-13T02:01:07.564Z,8.52
2022-09-13T02:03:40.526Z,8.75
2022-09-13T02:06:18.660Z,7.25
2022-09-13T02:09:01.229Z,7.70
2022-09-13T02:11:29.288Z,7.22
2022-09-13T02:14:00.919Z,7.38
2022-09-13T02:16:36.498Z,6.20
2022-09-13T02:19:26.087Z,6.90
2022-09-13T02:21:59.154Z,6.20
2022-09-13T02:24:41.242Z,5.68
2022-09-13T02:27:14.396Z,7.60
2022-09-13T02:29:46.563Z,6.82
2022-09-13T02:32:30.453Z,7.28
2022-09-13T02:35:04.187Z,5.40
2022-09-13T02:40:05.880Z,5.90
2022-09-13T02:42:44.523Z,6.18
2022-09-13T02:45:15.755Z,4.75
2022-09-13T02:47:58.671Z,4.20
2022-09-13T02:50:55.442Z,4.40
2022-09-13T02:53:38.933Z,3.92
2022-09-13T02:56:24.404Z,4.00
2022-09-13T02:59:10.552Z,3.70
2022-09-13T03:01:40.094Z,3.20
2022-09-13T03:04:08.001Z,3.38
2022-09-13T03:06:35.447Z,3.53
2022-09-13T03:09:06.987Z,3.67
2022-09-13T03:12:08.995Z,3.33
2022-09-13T03:14:51.452Z,3.78
2022-09-13T03:17:30.205Z,3.50
2022-09-13T03:20:23.902Z,3.28
2022-09-13T03:23:06.707Z,3.28
2022-09-13T03:25:46.049Z,2.80
2022-09-13T03:28:21.202Z,3.10
2022-09-13T03:30:55.836Z,3.30
2022-09-13T03:33:36.761Z,3.78
2022-09-13T03:36:16.135Z,3.00
2022-09-13T03:38:54.598Z,2.78
2022-09-13T03:41:32.594Z,3.20
2022-09-13T03:44:04.170Z,2.80
2022-09-13T03:46:38.738Z,3.15
2022-09-13T03:49:13.329Z,2.75
2022-09-13T03:51:42.358Z,2.60
2022-09-13T03:54:19.535Z,2.60
2022-09-13T03:57:11.559Z,2.88
2022-09-13T03:59:44.801Z,2.50
2022-09-13T04:02:12.333Z,2.10
2022-09-13T04:04:41.734Z,2.50
2022-09-13T04:07:11.481Z,2.22
2022-09-13T04:09:38.971Z,2.40
2022-09-13T04:12:06.936Z,2.53
2022-09-13T04:14:34.419Z,2.17
2022-09-13T04:17:01.854Z,2.00
2022-09-13T04:19:29.316Z,2.53
2022-09-13T04:21:56.771Z,2.33
2022-09-13T04:24:29.270Z,2.00
2022-09-13T04:26:56.760Z,2.00
2022-09-13T04:29:26.192Z,2.40
2022-09-13T04:31:54.875Z,1.88
2022-09-13T04:34:23.543Z,1.70
2022-09-13T04:36:52.788Z,1.70
2022-09-13T04:39:21.538Z,1.70
2022-09-13T04:41:50.028Z,2.40
2022-09-13T04:44:18.485Z,1.88
2022-09-13T04:46:49.027Z,1.98
2022-09-13T04:49:18.044Z,1.80
2022-09-13T04:51:45.515Z,1.52
2022-09-13T04:54:16.105Z,1.88
2022-09-13T04:56:45.003Z,1.80
2022-09-13T04:59:12.893Z,1.83
2022-09-13T05:01:41.639Z,1.75
2022-09-13T05:04:10.083Z,1.90
2022-09-13T05:06:38.539Z,1.50
2022-09-13T05:09:06.640Z,1.40
2022-09-13T05:11:34.299Z,1.30
2022-09-13T05:14:01.919Z,1.40
2022-09-13T05:16:31.903Z,1.30
2022-09-13T05:19:00.379Z,1.20
2022-09-13T05:21:28.654Z,1.20
2022-09-13T05:23:57.238Z,1.30
2022-09-13T05:26:27.351Z,1.30
2022-09-13T05:28:54.851Z,1.20
2022-09-13T05:31:28.527Z,1.40
2022-09-13T05:33:59.852Z,0.98
2022-09-13T05:36:28.189Z,1.10
2022-09-13T05:39:18.777Z,1.08
2022-09-13T05:41:43.655Z,1.05
2022-09-13T05:44:13.549Z,1.00
2022-09-13T05:46:43.199Z,1.00
2022-09-13T05:49:14.346Z,0.88
2022-09-13T05:51:41.942Z,0.82
2022-09-13T05:54:12.801Z,0.73
2022-09-13T05:56:40.519Z,0.82
2022-09-13T05:59:09.216Z,0.80
2022-09-13T06:01:36.957Z,0.68
2022-09-13T06:04:04.990Z,0.65
2022-09-13T06:06:32.450Z,0.77
2022-09-13T06:08:59.840Z,1.08
2022-09-13T06:11:27.633Z,0.80
2022-09-13T06:13:55.466Z,0.63
2022-09-13T06:16:23.727Z,0.68
2022-09-13T06:18:51.319Z,0.60
2022-09-13T06:21:24.647Z,1.02
2022-09-13T06:23:55.401Z,0.70
2022-09-13T06:26:28.254Z,0.70
2022-09-13T06:31:26.170Z,0.77
2022-09-13T06:33:59.406Z,0.80
2022-09-13T06:36:27.382Z,0.90
2022-09-13T06:38:55.000Z,1.08
2022-09-13T06:41:25.356Z,1.20
2022-09-13T06:44:00.649Z,1.30
2022-09-13T06:46:30.573Z,1.20
2022-09-13T06:49:06.452Z,1.50
2022-09-13T06:51:35.742Z,1.13
2022-09-13T06:54:06.683Z,1.15
2022-09-13T06:56:37.417Z,1.00
2022-09-13T06:59:07.894Z,1.00
2022-09-13T07:01:40.848Z,1.25
2022-09-13T07:04:13.075Z,0.70
2022-09-13T07:06:43.119Z,0.80
2022-09-13T07:09:22.058Z,1.20
2022-09-13T07:11:51.923Z,1.10
2022-09-13T07:14:22.167Z,0.98
2022-09-13T07:16:51.938Z,0.80
2022-09-13T07:19:27.193Z,0.70
2022-09-13T07:21:56.169Z,0.80
2022-09-13T07:24:24.179Z,0.70
2022-09-13T07:26:51.684Z,0.60
2022-09-13T07:29:22.872Z,0.70
2022-09-13T07:31:52.950Z,0.50
2022-09-13T07:34:22.981Z,0.60
2022-09-13T07:36:51.069Z,0.50
2022-09-13T07:39:22.386Z,0.85
2022-09-13T07:41:52.177Z,0.60
2022-09-13T07:44:19.908Z,0.68
2022-09-13T07:46:47.315Z,0.70
2022-09-13T07:49:19.700Z,0.57
2022-09-13T07:51:47.208Z,0.95
2022-09-13T07:54:18.106Z,0.98
2022-09-13T07:56:46.222Z,0.40
2022-09-13T07:59:15.749Z,0.30
2022-09-13T08:01:48.781Z,0.40
2022-09-13T08:04:19.128Z,0.63
2022-09-13T08:06:47.255Z,0.45
2022-09-13T08:09:15.826Z,0.82
2022-09-13T08:11:46.310Z,0.70
2022-09-13T08:14:16.293Z,0.50
2022-09-13T08:16:44.069Z,0.32
2022-09-13T08:19:14.436Z,0.50
2022-09-13T08:21:42.972Z,0.55
2022-09-13T08:24:16.112Z,0.30
2022-09-13T08:29:12.901Z,0.60
2022-09-13T08:31:40.423Z,0.50
2022-09-13T08:34:12.243Z,0.70
2022-09-13T08:36:41.371Z,0.47
2022-09-13T08:39:09.557Z,0.40
2022-09-13T08:41:52.738Z,0.70
2022-09-13T08:44:28.483Z,0.50
2022-09-13T08:47:26.973Z,0.60
2022-09-13T08:50:30.377Z,0.40
2022-09-13T08:53:13.245Z,0.50
2022-09-13T08:58:20.109Z,0.50
2022-09-13T09:01:00.629Z,0.60
2022-09-13T09:03:41.642Z,0.50
2022-09-13T09:06:17.423Z,0.60
2022-09-13T09:09:08.675Z,0.60
2022-09-13T09:11:50.912Z,0.50
2022-09-13T09:14:42.235Z,0.50
2022-09-13T09:17:24.163Z,0.47
2022-09-13T09:20:23.196Z,0.60
2022-09-13T09:22:52.485Z,0.50
2022-09-13T09:25:23.240Z,0.68
2022-09-13T09:27:52.453Z,0.68
2022-09-13T09:30:20.608Z,0.60
2022-09-13T09:32:58.056Z,0.63
2022-09-13T09:35:51.629Z,0.68
2022-09-13T09:38:28.021Z,0.70
2022-09-13T09:40:55.482Z,0.60
2022-09-13T09:43:31.307Z,0.60
2022-09-13T09:46:01.222Z,0.70
2022-09-13T09:48:38.238Z,0.90
2022-09-13T09:51:08.531Z,0.52
2022-09-13T09:53:43.767Z,0.68
2022-09-13T09:56:25.211Z,0.63
2022-09-13T09:58:56.617Z,0.60
2022-09-13T10:01:30.980Z,0.60
2022-09-13T10:04:12.524Z,0.90
2022-09-13T10:06:42.224Z,0.80
2022-09-13T10:09:20.330Z,1.13
2022-09-13T10:11:56.630Z,1.25
2022-09-13T10:14:36.740Z,1.00
2022-09-13T10:17:17.032Z,0.80
2022-09-13T10:20:01.656Z,0.80
2022-09-13T10:22:33.809Z,0.40
2022-09-13T10:25:23.003Z,0.57
2022-09-13T10:28:01.373Z,0.95
2022-09-13T10:30:42.937Z,0.80
2022-09-13T10:33:32.423Z,0.80
2022-09-13T10:36:06.072Z,0.80
2022-09-13T10:38:37.612Z,1.00
2022-09-13T10:41:09.747Z,0.60
2022-09-13T10:43:38.477Z,1.10
2022-09-13T10:46:09.259Z,1.00
2022-09-13T10:48:48.799Z,0.90
2022-09-13T10:51:39.924Z,1.00
2022-09-13T10:54:21.004Z,0.60
2022-09-13T10:56:49.324Z,0.80
2022-09-13T10:59:19.810Z,0.90
2022-09-13T11:02:02.348Z,0.90
2022-09-13T11:05:09.075Z,0.70
2022-09-13T11:08:01.719Z,0.70
2022-09-13T11:10:47.719Z,1.75
2022-09-13T11:13:20.373Z,1.92
2022-09-13T11:16:10.282Z,0.80
2022-09-13T11:18:59.682Z,0.80
2022-09-13T11:21:49.444Z,0.70
2022-09-13T11:24:35.485Z,0.57
2022-09-13T11:27:15.863Z,0.70
2022-09-13T11:29:49.207Z,0.47
2022-09-13T11:32:30.758Z,0.50
2022-09-13T11:35:20.050Z,0.50
2022-09-13T11:38:24.662Z,0.47
2022-09-13T11:40:57.916Z,0.60
2022-09-13T11:43:42.953Z,0.50
2022-09-13T11:46:45.688Z,0.50
2022-09-13T11:49:42.051Z,0.60
2022-09-13T11:52:20.748Z,0.50
2022-09-13T11:54:59.647Z,0.50
2022-09-13T11:57:33.446Z,0.60
2022-09-13T12:00:19.086Z,0.50
2022-09-13T12:03:01.725Z,0.77
2022-09-13T12:05:42.075Z,0.60
2022-09-13T12:08:35.174Z,0.80
2022-09-13T12:11:25.893Z,0.57
2022-09-13T12:14:03.943Z,0.70
2022-09-13T12:16:43.782Z,0.88
2022-09-13T12:19:26.203Z,0.70
2022-09-13T12:21:57.422Z,1.20
2022-09-13T12:25:06.431Z,0.77
2022-09-13T12:27:57.372Z,1.00
2022-09-13T12:30:32.446Z,0.90
2022-09-13T12:32:59.880Z,0.93
2022-09-13T12:35:40.526Z,0.60
2022-09-13T12:38:47.761Z,0.80
2022-09-13T12:41:53.307Z,1.55
2022-09-13T12:44:48.468Z,0.60
2022-09-13T12:47:33.792Z,0.50
2022-09-13T12:53:44.246Z,1.20
2022-09-13T12:56:23.207Z,1.30
2022-09-13T12:59:30.100Z,1.23
2022-09-13T13:01:58.735Z,1.20
2022-09-13T13:04:33.661Z,2.10
2022-09-13T13:07:08.412Z,1.50
2022-09-13T13:09:56.598Z,1.50
2022-09-13T13:12:30.602Z,1.42
2022-09-13T13:15:03.714Z,1.30
2022-09-13T13:17:39.592Z,0.90
2022-09-13T13:20:58.351Z,1.00
2022-09-13T13:23:25.814Z,0.80
2022-09-13T13:26:08.839Z,1.10
2022-09-13T13:31:25.276Z,1.00
2022-09-13T13:33:58.801Z,1.38
2022-09-13T13:36:29.111Z,0.88
2022-09-13T13:38:57.762Z,0.80
2022-09-13T13:41:34.390Z,0.80
2022-09-13T13:44:22.405Z,1.00
2022-09-13T13:47:14.460Z,1.20
2022-09-13T13:49:41.848Z,1.50
2022-09-13T13:52:09.377Z,0.90
2022-09-13T13:54:43.271Z,1.30
2022-09-13T13:57:31.446Z,1.20
2022-09-13T14:00:20.009Z,1.40
2022-09-13T14:02:50.513Z,1.80
2022-09-13T14:05:33.253Z,1.80
2022-09-13T14:08:33.020Z,1.50
2022-09-13T14:11:42.533Z,2.15
2022-09-13T14:14:25.128Z,2.08
2022-09-13T14:17:23.849Z,2.22
2022-09-13T14:19:57.187Z,1.40
2022-09-13T14:22:25.572Z,1.63
2022-09-13T14:24:55.502Z,1.75
2022-09-13T14:27:22.813Z,1.65
2022-09-13T14:29:53.682Z,1.60
2022-09-13T14:32:38.400Z,1.58
2022-09-13T14:35:23.644Z,1.90
2022-09-13T14:37:51.116Z,1.40
2022-09-13T14:40:26.904Z,1.70
2022-09-13T14:42:56.466Z,1.77
2022-09-13T14:45:35.880Z,2.75
2022-09-13T14:48:07.368Z,1.85
2022-09-13T14:50:41.727Z,2.33
2022-09-13T14:53:17.295Z,2.03
2022-09-13T14:55:55.838Z,2.10
2022-09-13T14:58:29.176Z,1.65
2022-09-13T15:01:01.016Z,1.35
2022-09-13T15:03:28.964Z,1.73
2022-09-13T15:06:02.190Z,4.60
2022-09-13T15:08:35.512Z,4.10
2022-09-13T15:11:06.548Z,1.92
2022-09-13T15:13:34.866Z,4.60
2022-09-13T15:16:02.812Z,2.08
2022-09-13T15:18:36.441Z,3.17
2022-09-13T15:21:18.773Z,2.13
2022-09-13T15:23:51.164Z,4.38
2022-09-13T15:26:25.767Z,3.33
2022-09-13T15:28:59.398Z,6.60
2022-09-13T15:34:17.194Z,2.00
2022-09-13T15:37:07.560Z,2.58
2022-09-13T15:39:49.848Z,2.28
2022-09-13T15:42:18.293Z,2.97
2022-09-13T15:44:45.720Z,3.58
2022-09-13T15:47:20.511Z,3.15
2022-09-13T15:49:52.530Z,6.15
2022-09-13T15:52:20.756Z,6.95
2022-09-13T15:54:51.158Z,5.35
2022-09-13T15:57:24.014Z,3.28
2022-09-13T15:59:52.368Z,3.60
2022-09-13T16:02:23.945Z,4.57
2022-09-13T16:04:51.900Z,3.65
2022-09-13T16:07:20.260Z,4.35
2022-09-13T16:09:48.607Z,3.78
2022-09-13T16:12:16.503Z,3.33
2022-09-13T16:14:44.014Z,3.50
2022-09-13T16:17:23.808Z,3.58
2022-09-13T16:19:51.730Z,3.72
2022-09-13T16:22:19.279Z,3.17
2022-09-13T16:24:47.389Z,3.97
2022-09-13T16:27:16.882Z,4.00
2022-09-13T16:29:44.347Z,4.30
2022-09-13T16:32:12.323Z,4.50
2022-09-13T16:34:39.812Z,4.95
2022-09-13T16:37:07.474Z,5.00
2022-09-13T16:39:35.104Z,6.47
2022-09-13T16:42:05.161Z,5.65
2022-09-13T16:44:32.733Z,5.13
2022-09-13T16:47:00.881Z,5.85
2022-09-13T16:49:28.622Z,6.10
2022-09-13T16:51:59.573Z,5.60
2022-09-13T16:54:31.421Z,6.07
2022-09-13T16:56:59.065Z,5.22
2022-09-13T16:59:26.848Z,5.93
2022-09-13T17:01:54.323Z,5.82
2022-09-13T17:04:22.203Z,5.30
2022-09-13T17:06:49.845Z,5.68
2022-09-13T17:09:17.962Z,5.00
2022-09-13T17:11:45.836Z,5.20
2022-09-13T17:14:17.519Z,4.68
2022-09-13T17:16:52.468Z,3.58
2022-09-13T17:19:23.831Z,4.90
2022-09-13T17:21:52.677Z,3.83
2022-09-13T17:24:20.177Z,4.20
2022-09-13T17:26:49.229Z,4.10
2022-09-13T17:29:17.848Z,4.70
2022-09-13T17:31:45.855Z,4.43
2022-09-13T17:34:14.359Z,4.50
2022-09-13T17:36:50.445Z,6.00
2022-09-13T17:39:19.777Z,6.10
2022-09-13T17:41:51.712Z,9.38
2022-09-13T17:44:19.199Z,5.97
2022-09-13T17:46:47.064Z,6.60
2022-09-13T17:49:14.788Z,5.70
2022-09-13T17:51:42.391Z,6.25
2022-09-13T17:54:12.177Z,5.70
2022-09-13T17:56:43.700Z,5.93
2022-09-13T17:59:14.271Z,5.88
2022-09-13T18:01:47.427Z,5.07
2022-09-13T18:04:16.446Z,5.68
2022-09-13T18:06:44.685Z,6.30
2022-09-13T18:09:14.289Z,6.15
2022-09-13T18:11:42.720Z,6.07
2022-09-13T18:14:19.150Z,7.15
2022-09-13T18:16:47.528Z,7.10
2022-09-13T18:19:15.006Z,7.43
2022-09-13T18:21:42.654Z,7.25
2022-09-13T18:24:10.162Z,8.85
2022-09-13T18:26:38.281Z,8.45
2022-09-13T18:29:10.025Z,9.07
2022-09-13T18:31:39.799Z,9.52
2022-09-13T18:34:12.078Z,9.40
2022-09-13T18:36:40.198Z,8.68
2022-09-13T18:39:12.858Z,8.52
2022-09-13T18:41:41.018Z,8.20
2022-09-13T18:44:10.826Z,8.02
2022-09-13T18:46:38.670Z,8.23
2022-09-13T18:49:06.983Z,7.90
2022-09-13T18:51:35.687Z,7.20
2022-09-13T18:54:05.026Z,7.72
2022-09-13T18:56:33.545Z,7.22
2022-09-13T18:59:03.496Z,7.85
2022-09-13T19:01:36.376Z,7.53
2022-09-13T19:04:08.968Z,7.95
2022-09-13T19:06:39.309Z,6.30
2022-09-13T19:09:08.407Z,4.70
2022-09-13T19:11:47.857Z,2.92
2022-09-13T19:14:23.249Z,3.45
2022-09-13T19:16:52.380Z,3.90
2022-09-13T19:19:20.063Z,5.57
2022-09-13T19:21:47.479Z,3.90
2022-09-13T19:24:19.575Z,4.93
2022-09-13T19:26:51.316Z,5.22
2022-09-13T19:29:21.918Z,7.03
2022-09-13T19:31:51.771Z,7.43
2022-09-13T19:34:21.340Z,6.28
2022-09-13T19:36:50.776Z,8.85
2022-09-13T19:39:18.276Z,6.97
2022-09-13T19:41:45.720Z,8.38
2022-09-13T19:44:14.007Z,6.07
2022-09-13T19:46:42.259Z,7.00
2022-09-13T19:49:17.354Z,6.72
2022-09-13T19:51:51.337Z,8.20
2022-09-13T19:54:20.804Z,8.50
2022-09-13T19:56:48.596Z,8.75
2022-09-13T19:59:20.070Z,8.50
2022-09-13T20:01:48.585Z,7.78
2022-09-13T20:04:21.288Z,7.10
2022-09-13T20:06:51.001Z,8.80
2022-09-13T20:09:20.327Z,9.75
2022-09-13T20:11:48.910Z,10.38
2022-09-13T20:14:20.696Z,10.07
2022-09-13T20:16:48.988Z,10.48
2022-09-13T20:22:09.138Z,10.63
2022-09-13T20:24:37.311Z,8.95
2022-09-13T20:27:05.234Z,9.35
2022-09-13T20:29:32.735Z,10.70
2022-09-13T20:32:00.409Z,11.32
2022-09-13T20:34:28.249Z,10.68
2022-09-13T20:36:55.707Z,11.07
2022-09-13T20:39:23.199Z,11.63
2022-09-13T20:41:50.679Z,10.82
2022-09-13T20:44:18.309Z,10.60
2022-09-13T20:46:45.908Z,11.70
2022-09-13T20:49:13.450Z,10.85
2022-09-13T20:51:40.899Z,11.70
2022-09-13T20:54:08.550Z,10.93
2022-09-13T20:56:36.418Z,10.43
2022-09-13T20:59:04.436Z,10.80
2022-09-13T21:01:33.478Z,11.05
2022-09-13T21:04:01.382Z,11.32
2022-09-13T21:06:30.666Z,10.70
2022-09-13T21:09:01.793Z,11.90
2022-09-13T21:11:34.160Z,12.98
2022-09-13T21:14:04.945Z,12.10
2022-09-13T21:16:36.880Z,6.30
2022-09-13T21:19:04.460Z,8.35
2022-09-13T21:21:34.854Z,11.60
2022-09-13T21:24:04.669Z,10.70
2022-09-13T21:26:33.350Z,10.07
2022-09-13T21:29:01.046Z,7.18
2022-09-13T21:31:31.184Z,10.38
2022-09-13T21:34:01.207Z,10.40
2022-09-13T21:36:29.733Z,10.68
2022-09-13T21:38:58.427Z,9.90
2022-09-13T21:41:27.553Z,10.40
2022-09-13T21:43:55.534Z,10.60
2022-09-13T21:46:26.231Z,10.05
2022-09-13T21:48:57.125Z,7.88
2022-09-13T21:51:24.529Z,9.38
2022-09-13T21:53:58.417Z,10.70
2022-09-13T21:56:31.806Z,7.93
2022-09-13T21:59:01.697Z,10.75
2022-09-13T22:01:32.632Z,9.82
2022-09-13T22:04:01.592Z,10.57
2022-09-13T22:06:33.536Z,10.32
2022-09-13T22:09:05.479Z,8.90
2022-09-13T22:11:38.753Z,9.40
2022-09-13T22:14:09.751Z,8.90
2022-09-13T22:16:39.137Z,9.77
2022-09-13T22:19:10.386Z,9.77
2022-09-13T22:21:40.516Z,10.18
2022-09-13T22:24:09.993Z,9.27
2022-09-13T22:26:40.049Z,10.55
2022-09-13T22:29:08.976Z,10.30
2022-09-13T22:31:39.767Z,10.27
2022-09-13T22:34:08.517Z,11.60
2022-09-13T22:36:35.973Z,14.00
2022-09-13T22:39:03.895Z,8.18
2022-09-13T22:41:33.675Z,11.95
2022-09-13T22:44:02.688Z,10.13
2022-09-13T22:46:32.090Z,10.18
2022-09-13T22:48:59.732Z,10.93
2022-09-13T22:51:28.118Z,9.02
2022-09-13T22:53:56.518Z,8.15
2022-09-13T22:56:30.475Z,8.98
2022-09-13T22:59:03.743Z,8.90
2022-09-13T23:01:32.151Z,3.35
2022-09-13T23:04:03.923Z,9.15
2022-09-13T23:06:32.193Z,7.15
2022-09-13T23:09:02.956Z,6.40
2022-09-13T23:11:32.655Z,7.32
2022-09-13T23:14:04.037Z,6.50
2022-09-13T23:16:41.408Z,7.60
2022-09-13T23:19:11.593Z,6.38
2022-09-13T23:21:40.118Z,5.93
2022-09-13T23:24:12.764Z,7.40
2022-09-13T23:26:40.454Z,6.28
2022-09-13T23:29:08.533Z,6.55
2022-09-13T23:31:39.116Z,6.75
2022-09-13T23:34:08.097Z,5.70
2022-09-13T23:36:39.077Z,6.05
2022-09-13T23:39:09.162Z,5.60
2022-09-13T23:41:36.671Z,5.95
2022-09-13T23:44:05.287Z,5.45
2022-09-13T23:46:33.132Z,5.85
2022-09-13T23:49:00.624Z,4.72
2022-09-13T23:51:28.464Z,4.20
2022-09-13T23:53:58.030Z,5.00
2022-09-13T23:56:27.090Z,3.92
2022-09-13T23:58:59.864Z,4.05
